sensor_id;sensor_type;location;lat;lon;timestamp;pressure;altitude;pressure_sealevel;temperature;humidity
32733;BME280;11867;51.198;11.966;2023-02-28T00:00:13;101896.84;;;2.30;79.48
32733;BME280;11867;51.198;11.966;2023-02-28T00:01:15;101905.47;;;2.10;79.50
32733;BME280;11867;51.198;11.966;2023-02-28T00:02:17;101900.50;;;2.07;79.48
32733;BME280;11867;51.198;11.966;2023-02-28T00:03:20;101896.03;;;1.99;79.77
32733;BME280;11867;51.198;11.966;2023-02-28T00:04:22;101892.69;;;2.12;79.93
32733;BME280;11867;51.198;11.966;2023-02-28T00:05:25;101885.81;;;2.25;79.25
32733;BME280;11867;51.198;11.966;2023-02-28T00:06:28;101894.81;;;2.32;78.94
32733;BME280;11867;51.198;11.966;2023-02-28T00:07:30;101891.38;;;2.38;78.83
32733;BME280;11867;51.198;11.966;2023-02-28T00:08:33;101888.56;;;2.46;78.63
32733;BME280;11867;51.198;11.966;2023-02-28T00:09:35;101896.72;;;2.53;78.53
32733;BME280;11867;51.198;11.966;2023-02-28T00:10:38;101893.28;;;2.59;77.90
32733;BME280;11867;51.198;11.966;2023-02-28T00:11:39;101902.38;;;2.43;78.07
32733;BME280;11867;51.198;11.966;2023-02-28T00:12:44;101897.59;;;2.38;77.90
32733;BME280;11867;51.198;11.966;2023-02-28T00:13:46;101883.69;;;2.05;78.16
32733;BME280;11867;51.198;11.966;2023-02-28T00:14:49;101892.97;;;2.17;78.75
32733;BME280;11867;51.198;11.966;2023-02-28T00:15:59;101890.34;;;2.24;78.53
32733;BME280;11867;51.198;11.966;2023-02-28T00:17:02;101896.00;;;2.14;78.39
32733;BME280;11867;51.198;11.966;2023-02-28T00:18:04;101900.28;;;2.24;78.42
32733;BME280;11867;51.198;11.966;2023-02-28T00:19:07;101886.38;;;2.20;77.97
32733;BME280;11867;51.198;11.966;2023-02-28T00:20:10;101881.91;;;2.12;77.82
32733;BME280;11867;51.198;11.966;2023-02-28T00:21:14;101883.13;;;2.25;77.70
32733;BME280;11867;51.198;11.966;2023-02-28T00:22:17;101883.19;;;2.31;77.62
32733;BME280;11867;51.198;11.966;2023-02-28T00:23:20;101886.41;;;2.41;77.45
32733;BME280;11867;51.198;11.966;2023-02-28T00:24:22;101887.09;;;2.29;77.75
32733;BME280;11867;51.198;11.966;2023-02-28T00:25:25;101886.81;;;2.38;77.92
32733;BME280;11867;51.198;11.966;2023-02-28T00:26:26;101881.97;;;2.49;77.65
32733;BME280;11867;51.198;11.966;2023-02-28T00:27:29;101889.47;;;2.53;77.39
32733;BME280;11867;51.198;11.966;2023-02-28T00:28:32;101887.06;;;2.58;77.17
32733;BME280;11867;51.198;11.966;2023-02-28T00:29:35;101882.44;;;2.52;77.30
32733;BME280;11867;51.198;11.966;2023-02-28T00:30:36;101886.28;;;2.65;77.01
32733;BME280;11867;51.198;11.966;2023-02-28T00:31:39;101885.91;;;2.68;76.79
32733;BME280;11867;51.198;11.966;2023-02-28T00:32:40;101885.31;;;2.72;76.53
32733;BME280;11867;51.198;11.966;2023-02-28T00:33:43;101884.75;;;2.77;76.13
32733;BME280;11867;51.198;11.966;2023-02-28T00:34:45;101889.78;;;2.80;76.47
32733;BME280;11867;51.198;11.966;2023-02-28T00:35:47;101888.59;;;2.68;76.53
32733;BME280;11867;51.198;11.966;2023-02-28T00:36:50;101883.47;;;2.73;76.63
32733;BME280;11867;51.198;11.966;2023-02-28T00:37:52;101890.66;;;2.66;76.75
32733;BME280;11867;51.198;11.966;2023-02-28T00:38:54;101887.13;;;2.65;76.93
32733;BME280;11867;51.198;11.966;2023-02-28T00:39:56;101886.28;;;2.65;76.83
32733;BME280;11867;51.198;11.966;2023-02-28T00:40:59;101879.53;;;2.54;77.18
32733;BME280;11867;51.198;11.966;2023-02-28T00:42:07;101886.66;;;2.61;77.12
32733;BME280;11867;51.198;11.966;2023-02-28T00:43:08;101892.50;;;2.65;76.91
32733;BME280;11867;51.198;11.966;2023-02-28T00:44:12;101883.41;;;2.66;76.82
32733;BME280;11867;51.198;11.966;2023-02-28T00:45:14;101886.84;;;2.60;76.95
32733;BME280;11867;51.198;11.966;2023-02-28T00:46:16;101889.25;;;2.70;76.72
32733;BME280;11867;51.198;11.966;2023-02-28T00:47:18;101893.59;;;2.71;76.93
32733;BME280;11867;51.198;11.966;2023-02-28T00:48:21;101888.34;;;2.62;76.82
32733;BME280;11867;51.198;11.966;2023-02-28T00:49:23;101887.56;;;2.69;77.05
32733;BME280;11867;51.198;11.966;2023-02-28T00:50:25;101884.22;;;2.67;76.64
32733;BME280;11867;51.198;11.966;2023-02-28T00:51:27;101889.88;;;2.72;76.16
32733;BME280;11867;51.198;11.966;2023-02-28T00:52:30;101885.78;;;2.54;76.34
32733;BME280;11867;51.198;11.966;2023-02-28T00:53:32;101886.09;;;2.15;77.56
32733;BME280;11867;51.198;11.966;2023-02-28T00:54:34;101880.91;;;2.13;78.50
32733;BME280;11867;51.198;11.966;2023-02-28T00:55:36;101892.00;;;2.25;78.59
32733;BME280;11867;51.198;11.966;2023-02-28T00:56:39;101885.16;;;2.22;78.45
32733;BME280;11867;51.198;11.966;2023-02-28T00:57:40;101883.03;;;2.18;79.11
32733;BME280;11867;51.198;11.966;2023-02-28T00:58:43;101887.91;;;2.29;78.86
32733;BME280;11867;51.198;11.966;2023-02-28T00:59:46;101884.91;;;2.17;78.46
32733;BME280;11867;51.198;11.966;2023-02-28T01:00:48;101888.84;;;2.36;78.24
32733;BME280;11867;51.198;11.966;2023-02-28T01:01:50;101885.97;;;2.38;78.06
32733;BME280;11867;51.198;11.966;2023-02-28T01:02:53;101883.13;;;2.10;79.29
32733;BME280;11867;51.198;11.966;2023-02-28T01:03:55;101887.66;;;1.79;80.44
32733;BME280;11867;51.198;11.966;2023-02-28T01:04:57;101879.75;;;1.63;80.32
32733;BME280;11867;51.198;11.966;2023-02-28T01:06:00;101876.66;;;1.36;81.93
32733;BME280;11867;51.198;11.966;2023-02-28T01:07:03;101873.97;;;1.36;82.07
32733;BME280;11867;51.198;11.966;2023-02-28T01:08:04;101877.56;;;1.67;82.12
32733;BME280;11867;51.198;11.966;2023-02-28T01:09:08;101869.88;;;1.78;81.57
32733;BME280;11867;51.198;11.966;2023-02-28T01:10:10;101873.59;;;2.07;80.61
32733;BME280;11867;51.198;11.966;2023-02-28T01:11:16;101883.13;;;2.25;79.82
32733;BME280;11867;51.198;11.966;2023-02-28T01:12:17;101876.97;;;2.31;79.37
32733;BME280;11867;51.198;11.966;2023-02-28T01:13:21;101873.94;;;2.19;78.99
32733;BME280;11867;51.198;11.966;2023-02-28T01:14:24;101867.72;;;2.04;79.54
32733;BME280;11867;51.198;11.966;2023-02-28T01:15:28;101873.75;;;2.20;79.54
32733;BME280;11867;51.198;11.966;2023-02-28T01:16:33;101869.28;;;2.28;79.12
32733;BME280;11867;51.198;11.966;2023-02-28T01:17:35;101873.19;;;2.40;78.24
32733;BME280;11867;51.198;11.966;2023-02-28T01:18:40;101870.59;;;2.32;77.91
32733;BME280;11867;51.198;11.966;2023-02-28T01:19:42;101874.81;;;2.41;77.65
32733;BME280;11867;51.198;11.966;2023-02-28T01:20:44;101871.78;;;2.44;77.57
32733;BME280;11867;51.198;11.966;2023-02-28T01:21:47;101874.72;;;2.49;77.13
32733;BME280;11867;51.198;11.966;2023-02-28T01:22:49;101874.06;;;2.47;76.60
32733;BME280;11867;51.198;11.966;2023-02-28T01:23:51;101873.53;;;2.37;76.70
32733;BME280;11867;51.198;11.966;2023-02-28T01:24:53;101885.47;;;2.49;76.82
32733;BME280;11867;51.198;11.966;2023-02-28T01:25:55;101878.34;;;2.56;76.28
32733;BME280;11867;51.198;11.966;2023-02-28T01:26:58;101873.19;;;2.40;76.53
32733;BME280;11867;51.198;11.966;2023-02-28T01:27:59;101872.72;;;2.07;76.94
32733;BME280;11867;51.198;11.966;2023-02-28T01:29:02;101873.47;;;1.71;78.29
32733;BME280;11867;51.198;11.966;2023-02-28T01:30:05;101885.19;;;1.93;78.52
32733;BME280;11867;51.198;11.966;2023-02-28T01:31:10;101874.31;;;2.16;78.05
32733;BME280;11867;51.198;11.966;2023-02-28T01:32:11;101876.34;;;2.29;77.44
32733;BME280;11867;51.198;11.966;2023-02-28T01:33:14;101880.88;;;2.28;77.12
32733;BME280;11867;51.198;11.966;2023-02-28T01:34:16;101876.38;;;1.99;76.86
32733;BME280;11867;51.198;11.966;2023-02-28T01:35:20;101883.69;;;1.90;77.66
32733;BME280;11867;51.198;11.966;2023-02-28T01:36:23;101868.19;;;2.07;77.67
32733;BME280;11867;51.198;11.966;2023-02-28T01:37:26;101873.75;;;2.20;77.31
32733;BME280;11867;51.198;11.966;2023-02-28T01:38:29;101872.34;;;2.25;77.27
32733;BME280;11867;51.198;11.966;2023-02-28T01:39:31;101875.59;;;2.35;76.88
32733;BME280;11867;51.198;11.966;2023-02-28T01:40:33;101875.75;;;2.48;76.43
32733;BME280;11867;51.198;11.966;2023-02-28T01:41:36;101875.25;;;2.59;75.94
32733;BME280;11867;51.198;11.966;2023-02-28T01:42:37;101867.63;;;2.63;75.56
32733;BME280;11867;51.198;11.966;2023-02-28T01:43:54;101871.91;;;2.57;75.72
32733;BME280;11867;51.198;11.966;2023-02-28T01:45:18;101872.50;;;2.53;75.95
32733;BME280;11867;51.198;11.966;2023-02-28T01:46:25;101873.31;;;2.53;75.75
32733;BME280;11867;51.198;11.966;2023-02-28T01:47:29;101870.09;;;2.65;75.75
32733;BME280;11867;51.198;11.966;2023-02-28T01:48:36;101866.66;;;2.71;75.50
32733;BME280;11867;51.198;11.966;2023-02-28T01:49:39;101867.94;;;2.75;75.18
32733;BME280;11867;51.198;11.966;2023-02-28T01:50:43;101870.69;;;2.60;74.97
32733;BME280;11867;51.198;11.966;2023-02-28T01:51:48;101862.41;;;2.40;75.75
32733;BME280;11867;51.198;11.966;2023-02-28T01:52:54;101865.63;;;2.50;75.76
32733;BME280;11867;51.198;11.966;2023-02-28T01:53:59;101858.84;;;2.54;75.56
32733;BME280;11867;51.198;11.966;2023-02-28T01:55:06;101863.72;;;2.66;75.58
32733;BME280;11867;51.198;11.966;2023-02-28T01:56:09;101863.41;;;2.75;75.57
32733;BME280;11867;51.198;11.966;2023-02-28T01:57:15;101861.59;;;2.82;75.15
32733;BME280;11867;51.198;11.966;2023-02-28T01:58:18;101871.03;;;2.72;75.09
32733;BME280;11867;51.198;11.966;2023-02-28T01:59:23;101860.25;;;2.72;75.22
32733;BME280;11867;51.198;11.966;2023-02-28T02:00:28;101856.16;;;2.76;75.12
32733;BME280;11867;51.198;11.966;2023-02-28T02:01:33;101856.16;;;2.76;74.70
32733;BME280;11867;51.198;11.966;2023-02-28T02:02:36;101853.34;;;2.84;74.75
32733;BME280;11867;51.198;11.966;2023-02-28T02:03:39;101863.72;;;2.87;75.10
32733;BME280;11867;51.198;11.966;2023-02-28T02:04:46;101860.78;;;2.82;74.92
32733;BME280;11867;51.198;11.966;2023-02-28T02:05:52;101857.50;;;2.65;75.29
32733;BME280;11867;51.198;11.966;2023-02-28T02:06:54;101857.03;;;2.61;74.97
32733;BME280;11867;51.198;11.966;2023-02-28T02:08:02;101858.56;;;2.49;75.32
32733;BME280;11867;51.198;11.966;2023-02-28T02:09:04;101860.44;;;2.49;75.53
32733;BME280;11867;51.198;11.966;2023-02-28T02:10:12;101847.69;;;2.57;75.38
32733;BME280;11867;51.198;11.966;2023-02-28T02:11:18;101850.94;;;2.53;75.00
32733;BME280;11867;51.198;11.966;2023-02-28T02:12:27;101860.69;;;2.54;75.06
32733;BME280;11867;51.198;11.966;2023-02-28T02:13:46;101853.19;;;2.49;74.97
32733;BME280;11867;51.198;11.966;2023-02-28T02:15:02;101848.06;;;2.54;74.74
32733;BME280;11867;51.198;11.966;2023-02-28T02:16:16;101845.09;;;2.49;74.60
32733;BME280;11867;51.198;11.966;2023-02-28T02:17:29;101846.78;;;2.35;74.30
32733;BME280;11867;51.198;11.966;2023-02-28T02:18:38;101843.91;;;1.86;75.62
32733;BME280;11867;51.198;11.966;2023-02-28T02:20:01;101846.38;;;2.02;76.37
32733;BME280;11867;51.198;11.966;2023-02-28T02:21:36;101848.91;;;1.89;76.74
32733;BME280;11867;51.198;11.966;2023-02-28T02:23:05;101849.38;;;1.92;77.16
32733;BME280;11867;51.198;11.966;2023-02-28T02:26:05;101853.91;;;1.62;78.02
32733;BME280;11867;51.198;11.966;2023-02-28T02:27:34;101854.47;;;1.72;77.50
32733;BME280;11867;51.198;11.966;2023-02-28T02:32:18;101841.41;;;1.99;77.43
32733;BME280;11867;51.198;11.966;2023-02-28T02:35:01;101844.44;;;2.11;76.33
32733;BME280;11867;51.198;11.966;2023-02-28T02:36:12;101836.75;;;1.93;77.39
32733;BME280;11867;51.198;11.966;2023-02-28T02:37:29;101846.94;;;1.53;78.34
32733;BME280;11867;51.198;11.966;2023-02-28T02:38:36;101843.25;;;1.54;78.07
32733;BME280;11867;51.198;11.966;2023-02-28T02:39:47;101842.88;;;1.87;77.75
32733;BME280;11867;51.198;11.966;2023-02-28T02:40:56;101845.19;;;1.60;77.65
32733;BME280;11867;51.198;11.966;2023-02-28T02:42:01;101848.16;;;1.65;78.09
32733;BME280;11867;51.198;11.966;2023-02-28T02:43:10;101834.72;;;1.95;77.37
32733;BME280;11867;51.198;11.966;2023-02-28T02:44:21;101841.56;;;2.12;76.28
32733;BME280;11867;51.198;11.966;2023-02-28T02:45:25;101843.28;;;2.35;75.85
32733;BME280;11867;51.198;11.966;2023-02-28T02:46:33;101843.16;;;2.43;75.43
32733;BME280;11867;51.198;11.966;2023-02-28T02:47:37;101842.69;;;2.39;75.30
32733;BME280;11867;51.198;11.966;2023-02-28T02:48:43;101848.44;;;2.51;75.19
32733;BME280;11867;51.198;11.966;2023-02-28T02:49:47;101837.28;;;2.18;75.39
32733;BME280;11867;51.198;11.966;2023-02-28T02:50:55;101844.06;;;2.14;75.60
32733;BME280;11867;51.198;11.966;2023-02-28T02:52:02;101846.06;;;2.27;75.65
32733;BME280;11867;51.198;11.966;2023-02-28T02:53:07;101850.22;;;2.44;75.17
32733;BME280;11867;51.198;11.966;2023-02-28T02:54:13;101844.72;;;2.52;74.80
32733;BME280;11867;51.198;11.966;2023-02-28T02:55:20;101845.44;;;2.61;74.86
32733;BME280;11867;51.198;11.966;2023-02-28T02:56:27;101843.97;;;2.58;74.89
32733;BME280;11867;51.198;11.966;2023-02-28T02:57:34;101836.59;;;2.31;75.05
32733;BME280;11867;51.198;11.966;2023-02-28T02:58:40;101846.25;;;2.40;75.42
32733;BME280;11867;51.198;11.966;2023-02-28T02:59:44;101847.53;;;2.44;75.43
32733;BME280;11867;51.198;11.966;2023-02-28T03:00:48;101845.09;;;2.49;75.24
32733;BME280;11867;51.198;11.966;2023-02-28T03:01:57;101844.09;;;2.50;75.31
32733;BME280;11867;51.198;11.966;2023-02-28T03:03:01;101842.69;;;2.54;75.10
32733;BME280;11867;51.198;11.966;2023-02-28T03:04:17;101848.25;;;2.53;75.18
32733;BME280;11867;51.198;11.966;2023-02-28T03:05:22;101852.06;;;2.58;75.06
32733;BME280;11867;51.198;11.966;2023-02-28T03:06:27;101852.06;;;2.58;74.95
32733;BME280;11867;51.198;11.966;2023-02-28T03:07:29;101855.00;;;2.12;75.69
32733;BME280;11867;51.198;11.966;2023-02-28T03:08:34;101851.97;;;1.71;77.03
32733;BME280;11867;51.198;11.966;2023-02-28T03:09:37;101850.69;;;1.96;77.24
32733;BME280;11867;51.198;11.966;2023-02-28T03:10:41;101850.91;;;2.16;76.65
32733;BME280;11867;51.198;11.966;2023-02-28T03:11:44;101851.75;;;2.32;76.14
32733;BME280;11867;51.198;11.966;2023-02-28T03:12:50;101857.78;;;2.34;75.96
32733;BME280;11867;51.198;11.966;2023-02-28T03:14:16;101851.06;;;2.45;75.30
32733;BME280;11867;51.198;11.966;2023-02-28T03:15:27;101842.41;;;2.49;74.95
32733;BME280;11867;51.198;11.966;2023-02-28T03:16:36;101848.44;;;2.51;74.71
32733;BME280;11867;51.198;11.966;2023-02-28T03:17:57;101854.28;;;2.55;74.91
32733;BME280;11867;51.198;11.966;2023-02-28T03:19:25;101853.88;;;2.58;74.92
32733;BME280;11867;51.198;11.966;2023-02-28T03:20:39;101847.75;;;2.28;75.90
32733;BME280;11867;51.198;11.966;2023-02-28T03:21:51;101846.84;;;2.20;76.75
32733;BME280;11867;51.198;11.966;2023-02-28T03:23:04;101846.25;;;2.25;76.96
32733;BME280;11867;51.198;11.966;2023-02-28T03:24:11;101849.06;;;2.32;76.94
32733;BME280;11867;51.198;11.966;2023-02-28T03:25:20;101844.22;;;2.42;76.64
32733;BME280;11867;51.198;11.966;2023-02-28T03:26:25;101854.13;;;2.41;76.29
32733;BME280;11867;51.198;11.966;2023-02-28T03:27:30;101851.06;;;2.45;75.94
32733;BME280;11867;51.198;11.966;2023-02-28T03:28:41;101851.41;;;2.56;75.92
32733;BME280;11867;51.198;11.966;2023-02-28T03:29:50;101845.09;;;2.49;76.00
32733;BME280;11867;51.198;11.966;2023-02-28T03:30:59;101844.91;;;2.51;75.74
32733;BME280;11867;51.198;11.966;2023-02-28T03:32:07;101856.16;;;2.54;75.47
32733;BME280;11867;51.198;11.966;2023-02-28T03:33:18;101853.47;;;2.54;75.69
32733;BME280;11867;51.198;11.966;2023-02-28T03:34:26;101852.59;;;2.54;75.55
32733;BME280;11867;51.198;11.966;2023-02-28T03:35:32;101852.16;;;2.50;75.54
32733;BME280;11867;51.198;11.966;2023-02-28T03:36:38;101848.19;;;2.46;75.44
32733;BME280;11867;51.198;11.966;2023-02-28T03:37:48;101865.88;;;2.55;75.67
32733;BME280;11867;51.198;11.966;2023-02-28T03:38:55;101855.88;;;2.49;75.77
32733;BME280;11867;51.198;11.966;2023-02-28T03:40:01;101853.47;;;2.54;75.70
32733;BME280;11867;51.198;11.966;2023-02-28T03:41:12;101846.78;;;2.50;75.75
32733;BME280;11867;51.198;11.966;2023-02-28T03:42:18;101858.84;;;2.39;75.70
32733;BME280;11867;51.198;11.966;2023-02-28T03:43:24;101853.59;;;2.31;76.28
32733;BME280;11867;51.198;11.966;2023-02-28T03:44:32;101858.28;;;1.93;76.99
32733;BME280;11867;51.198;11.966;2023-02-28T03:45:38;101854.94;;;1.91;77.87
32733;BME280;11867;51.198;11.966;2023-02-28T03:46:45;101851.13;;;1.85;77.75
32733;BME280;11867;51.198;11.966;2023-02-28T03:47:53;101859.78;;;1.28;79.19
32733;BME280;11867;51.198;11.966;2023-02-28T03:49:01;101853.13;;;1.38;79.97
32733;BME280;11867;51.198;11.966;2023-02-28T03:50:07;101853.69;;;1.49;79.67
32733;BME280;11867;51.198;11.966;2023-02-28T03:51:15;101854.00;;;1.54;79.46
32733;BME280;11867;51.198;11.966;2023-02-28T03:52:23;101855.66;;;1.55;79.82
32733;BME280;11867;51.198;11.966;2023-02-28T03:53:32;101855.78;;;1.24;80.69
32733;BME280;11867;51.198;11.966;2023-02-28T03:54:41;101856.88;;;1.14;81.67
32733;BME280;11867;51.198;11.966;2023-02-28T03:55:45;101854.81;;;1.39;81.38
32733;BME280;11867;51.198;11.966;2023-02-28T03:56:53;101860.91;;;1.33;81.11
32733;BME280;11867;51.198;11.966;2023-02-28T03:58:01;101852.22;;;1.46;80.93
32733;BME280;11867;51.198;11.966;2023-02-28T03:59:10;101861.50;;;1.44;80.32
32733;BME280;11867;51.198;11.966;2023-02-28T04:00:19;101854.56;;;1.49;80.43
32733;BME280;11867;51.198;11.966;2023-02-28T04:01:25;101861.72;;;1.72;79.76
32733;BME280;11867;51.198;11.966;2023-02-28T04:02:31;101857.06;;;1.95;79.03
32733;BME280;11867;51.198;11.966;2023-02-28T04:03:32;101861.59;;;2.10;78.20
32733;BME280;11867;51.198;11.966;2023-02-28T04:04:35;101857.34;;;2.15;77.99
32733;BME280;11867;51.198;11.966;2023-02-28T04:05:48;101861.69;;;2.16;77.39
32733;BME280;11867;51.198;11.966;2023-02-28T04:06:52;101870.94;;;2.29;77.40
32733;BME280;11867;51.198;11.966;2023-02-28T04:08:05;101865.19;;;2.17;77.13
32733;BME280;11867;51.198;11.966;2023-02-28T04:09:12;101864.47;;;2.08;77.31
32733;BME280;11867;51.198;11.966;2023-02-28T04:10:13;101871.25;;;2.04;77.20
32733;BME280;11867;51.198;11.966;2023-02-28T04:11:21;101868.41;;;1.91;77.61
32733;BME280;11867;51.198;11.966;2023-02-28T04:12:23;101866.53;;;1.76;77.76
32733;BME280;11867;51.198;11.966;2023-02-28T04:13:26;101867.91;;;1.87;77.68
32733;BME280;11867;51.198;11.966;2023-02-28T04:14:27;101868.75;;;1.88;77.15
32733;BME280;11867;51.198;11.966;2023-02-28T04:15:30;101864.41;;;2.01;77.36
32733;BME280;11867;51.198;11.966;2023-02-28T04:16:33;101861.16;;;1.76;77.17
32733;BME280;11867;51.198;11.966;2023-02-28T04:17:36;101865.06;;;1.89;77.56
32733;BME280;11867;51.198;11.966;2023-02-28T04:18:38;101861.31;;;2.05;77.10
32733;BME280;11867;51.198;11.966;2023-02-28T04:19:41;101862.97;;;2.20;76.94
32733;BME280;11867;51.198;11.966;2023-02-28T04:20:42;101861.22;;;2.28;76.36
32733;BME280;11867;51.198;11.966;2023-02-28T04:21:47;101868.78;;;2.39;76.07
32733;BME280;11867;51.198;11.966;2023-02-28T04:22:50;101858.50;;;2.42;75.57
32733;BME280;11867;51.198;11.966;2023-02-28T04:23:52;101865.63;;;2.35;75.81
32733;BME280;11867;51.198;11.966;2023-02-28T04:24:56;101866.41;;;2.14;76.27
32733;BME280;11867;51.198;11.966;2023-02-28T04:25:57;101867.59;;;2.27;76.68
32733;BME280;11867;51.198;11.966;2023-02-28T04:27:00;101866.03;;;2.32;75.93
32733;BME280;11867;51.198;11.966;2023-02-28T04:28:01;101866.72;;;1.90;77.01
32733;BME280;11867;51.198;11.966;2023-02-28T04:29:06;101870.34;;;1.82;77.41
32733;BME280;11867;51.198;11.966;2023-02-28T04:30:09;101873.72;;;1.61;78.11
32733;BME280;11867;51.198;11.966;2023-02-28T04:31:12;101864.84;;;1.75;78.14
32733;BME280;11867;51.198;11.966;2023-02-28T04:32:14;101866.06;;;1.88;77.89
32733;BME280;11867;51.198;11.966;2023-02-28T04:33:16;101869.84;;;2.08;77.15
32733;BME280;11867;51.198;11.966;2023-02-28T04:34:18;101870.31;;;2.27;76.48
32733;BME280;11867;51.198;11.966;2023-02-28T04:35:22;101869.19;;;2.21;76.67
32733;BME280;11867;51.198;11.966;2023-02-28T04:36:24;101865.09;;;2.25;76.71
32733;BME280;11867;51.198;11.966;2023-02-28T04:37:27;101870.50;;;2.10;76.11
32733;BME280;11867;51.198;11.966;2023-02-28T04:38:32;101872.81;;;1.98;76.63
32733;BME280;11867;51.198;11.966;2023-02-28T04:39:35;101877.94;;;2.08;76.60
32733;BME280;11867;51.198;11.966;2023-02-28T04:40:39;101870.69;;;1.64;76.77
32733;BME280;11867;51.198;11.966;2023-02-28T04:41:41;101870.09;;;1.39;77.92
32733;BME280;11867;51.198;11.966;2023-02-28T04:42:44;101871.16;;;1.68;77.96
32733;BME280;11867;51.198;11.966;2023-02-28T04:43:45;101874.34;;;1.86;77.40
32733;BME280;11867;51.198;11.966;2023-02-28T04:44:48;101871.81;;;2.14;76.50
32733;BME280;11867;51.198;11.966;2023-02-28T04:45:50;101875.00;;;2.39;76.22
32733;BME280;11867;51.198;11.966;2023-02-28T04:46:52;101870.81;;;2.52;75.86
32733;BME280;11867;51.198;11.966;2023-02-28T04:47:54;101869.97;;;2.51;75.45
32733;BME280;11867;51.198;11.966;2023-02-28T04:48:56;101881.66;;;2.58;74.89
32733;BME280;11867;51.198;11.966;2023-02-28T04:49:58;101873.25;;;2.68;75.07
32733;BME280;11867;51.198;11.966;2023-02-28T04:51:00;101871.91;;;2.79;74.74
32733;BME280;11867;51.198;11.966;2023-02-28T04:52:02;101873.09;;;2.70;74.70
32733;BME280;11867;51.198;11.966;2023-02-28T04:53:05;101873.72;;;2.72;74.52
32733;BME280;11867;51.198;11.966;2023-02-28T04:54:06;101871.09;;;2.78;74.36
32733;BME280;11867;51.198;11.966;2023-02-28T04:55:10;101873.59;;;2.80;74.03
32733;BME280;11867;51.198;11.966;2023-02-28T04:56:14;101867.00;;;2.82;74.44
32733;BME280;11867;51.198;11.966;2023-02-28T04:57:17;101869.50;;;2.84;73.98
32733;BME280;11867;51.198;11.966;2023-02-28T04:58:18;101872.50;;;2.74;74.55
32733;BME280;11867;51.198;11.966;2023-02-28T04:59:21;101871.91;;;2.79;74.35
32733;BME280;11867;51.198;11.966;2023-02-28T05:00:22;101874.25;;;2.82;74.26
32733;BME280;11867;51.198;11.966;2023-02-28T05:01:28;101867.19;;;2.81;74.08
32733;BME280;11867;51.198;11.966;2023-02-28T05:02:30;101870.78;;;2.88;74.13
32733;BME280;11867;51.198;11.966;2023-02-28T05:03:32;101867.31;;;2.94;73.49
32733;BME280;11867;51.198;11.966;2023-02-28T05:04:34;101863.81;;;2.94;73.70
32733;BME280;11867;51.198;11.966;2023-02-28T05:05:37;101875.41;;;2.94;74.09
32733;BME280;11867;51.198;11.966;2023-02-28T05:06:39;101871.13;;;3.00;74.09
32733;BME280;11867;51.198;11.966;2023-02-28T05:07:41;101872.59;;;3.02;73.65
32733;BME280;11867;51.198;11.966;2023-02-28T05:08:43;101874.88;;;3.06;73.52
32733;BME280;11867;51.198;11.966;2023-02-28T05:09:45;101875.28;;;3.02;73.35
32733;BME280;11867;51.198;11.966;2023-02-28T05:10:47;101874.25;;;3.03;73.46
32733;BME280;11867;51.198;11.966;2023-02-28T05:11:51;101877.97;;;3.02;73.26
32733;BME280;11867;51.198;11.966;2023-02-28T05:12:53;101875.47;;;3.01;73.03
32733;BME280;11867;51.198;11.966;2023-02-28T05:13:55;101875.88;;;2.98;73.38
32733;BME280;11867;51.198;11.966;2023-02-28T05:14:57;101883.22;;;2.89;73.85
32733;BME280;11867;51.198;11.966;2023-02-28T05:16:00;101884.50;;;2.93;73.94
32733;BME280;11867;51.198;11.966;2023-02-28T05:17:01;101886.78;;;2.53;74.52
32733;BME280;11867;51.198;11.966;2023-02-28T05:18:04;101887.09;;;2.29;75.51
32733;BME280;11867;51.198;11.966;2023-02-28T05:19:05;101879.84;;;2.29;75.66
32733;BME280;11867;51.198;11.966;2023-02-28T05:20:10;101884.69;;;2.19;76.22
32733;BME280;11867;51.198;11.966;2023-02-28T05:21:25;101887.63;;;2.39;76.04
32733;BME280;11867;51.198;11.966;2023-02-28T05:22:29;101887.53;;;2.47;75.84
32733;BME280;11867;51.198;11.966;2023-02-28T05:23:30;101883.41;;;2.30;75.53
32733;BME280;11867;51.198;11.966;2023-02-28T05:24:33;101885.06;;;2.31;75.43
32733;BME280;11867;51.198;11.966;2023-02-28T05:25:35;101884.03;;;2.32;75.47
32733;BME280;11867;51.198;11.966;2023-02-28T05:26:40;101882.53;;;2.44;75.45
32733;BME280;11867;51.198;11.966;2023-02-28T05:27:43;101891.25;;;2.46;75.18
32733;BME280;11867;51.198;11.966;2023-02-28T05:28:46;101885.09;;;2.01;76.20
32733;BME280;11867;51.198;11.966;2023-02-28T05:29:47;101891.94;;;2.18;76.64
32733;BME280;11867;51.198;11.966;2023-02-28T05:30:50;101885.69;;;2.33;76.20
32733;BME280;11867;51.198;11.966;2023-02-28T05:31:51;101883.94;;;2.40;75.65
32733;BME280;11867;51.198;11.966;2023-02-28T05:32:54;101886.13;;;2.51;75.14
32733;BME280;11867;51.198;11.966;2023-02-28T05:33:55;101883.72;;;2.56;75.08
32733;BME280;11867;51.198;11.966;2023-02-28T05:34:58;101886.34;;;2.35;75.37
32733;BME280;11867;51.198;11.966;2023-02-28T05:35:59;101880.13;;;2.34;75.40
32733;BME280;11867;51.198;11.966;2023-02-28T05:37:02;101884.53;;;1.91;76.03
32733;BME280;11867;51.198;11.966;2023-02-28T05:38:04;101887.69;;;1.94;77.12
32733;BME280;11867;51.198;11.966;2023-02-28T05:39:07;101889.06;;;2.05;77.01
32733;BME280;11867;51.198;11.966;2023-02-28T05:40:09;101889.88;;;2.20;76.39
32733;BME280;11867;51.198;11.966;2023-02-28T05:41:12;101883.66;;;2.35;76.08
32733;BME280;11867;51.198;11.966;2023-02-28T05:42:14;101885.34;;;2.36;75.71
32733;BME280;11867;51.198;11.966;2023-02-28T05:43:17;101888.28;;;2.41;75.81
32733;BME280;11867;51.198;11.966;2023-02-28T05:44:19;101895.25;;;2.50;75.35
32733;BME280;11867;51.198;11.966;2023-02-28T05:45:21;101899.03;;;2.56;75.37
32733;BME280;11867;51.198;11.966;2023-02-28T05:46:23;101903.03;;;1.56;77.61